Time,TemperatureF,DewpointF,PressureIn,WindDirection,WindDirectionDegrees,WindSpeedMPH,WindSpeedGustMPH,Humidity,HourlyPrecipIn,Conditions,Clouds,dailyrainin,SoftwareType,DateUTC
2013-01-26 00:16:00,19.9,5.9,30.23,NNW,340,5.0,12.0,54,0.00,CLR,CLR,0.00,WeatherDisplay:10.37,2013-01-26 06:16:00,
2013-01-26 00:46:00,19.9,5.9,30.23,NNW,340,5.0,5.0,54,0.00,CLR,CLR,0.00,WeatherDisplay:10.37,2013-01-26 06:46:00,
2013-01-26 01:15:00,19.0,5.9,30.25,NNW,330,6.0,6.0,56,0.00,CLR,CLR,0.00,WeatherDisplay:10.37,2013-01-26 07:15:00,
2013-01-26 01:46:00,19.0,5.9,30.25,NNW,330,6.0,6.0,56,0.00,CLR,CLR,0.00,WeatherDisplay:10.37,2013-01-26 07:46:00,
2013-01-26 02:15:00,18.0,6.0,30.26,NNW,340,6.0,6.0,59,0.00,CLR,CLR,0.00,WeatherDisplay:10.37,2013-01-26 08:15:00,
2013-01-26 02:45:00,18.0,6.0,30.26,NNW,340,6.0,6.0,59,0.00,CLR,CLR,0.00,WeatherDisplay:10.37,2013-01-26 08:45:00,
2013-01-26 03:15:00,16.0,5.9,30.27,NNW,340,6.0,6.0,64,0.00,CLR,CLR,0.00,WeatherDisplay:10.37,2013-01-26 09:15:00,
2013-01-26 03:45:00,16.0,5.9,30.27,NNW,340,6.0,6.0,64,0.00,CLR,CLR,0.00,WeatherDisplay:10.37,2013-01-26 09:45:00,
2013-01-26 04:15:00,15.1,5.8,30.28,NNW,340,6.0,6.0,66,0.00,CLR,CLR,0.00,WeatherDisplay:10.37,2013-01-26 10:15:00,
2013-01-26 04:46:00,15.1,5.8,30.28,NNW,340,6.0,6.0,66,0.00,CLR,CLR,0.00,WeatherDisplay:10.37,2013-01-26 10:46:00,
2013-01-26 05:15:00,14.0,6.0,30.32,NNW,340,0.0,6.0,70,0.00,CLR,CLR,0.00,WeatherDisplay:10.37,2013-01-26 11:15:00,
2013-01-26 05:46:00,14.0,6.0,30.32,NNW,340,0.0,0.0,70,0.00,CLR,CLR,0.00,WeatherDisplay:10.37,2013-01-26 11:46:00,
2013-01-26 06:16:00,12.0,5.9,30.34,NW,320,3.0,3.0,76,0.00,CLR,CLR,0.00,WeatherDisplay:10.37,2013-01-26 12:16:00,
2013-01-26 06:46:00,12.0,5.9,30.34,NW,320,3.0,3.0,76,0.00,CLR,CLR,0.00,WeatherDisplay:10.37,2013-01-26 12:46:00,
2013-01-26 07:16:00,12.0,4.7,30.35,NW,320,0.0,3.0,72,0.00,CLR,CLR,0.00,WeatherDisplay:10.37,2013-01-26 13:16:00,
2013-01-26 07:46:00,12.0,4.7,30.35,NW,320,0.0,0.0,72,0.00,CLR,CLR,0.00,WeatherDisplay:10.37,2013-01-26 13:46:00,
2013-01-26 08:16:00,14.0,6.0,30.36,NNE,20,6.0,6.0,70,0.00,CLR,CLR,0.00,WeatherDisplay:10.37,2013-01-26 14:16:00,
2013-01-26 08:46:00,14.0,6.0,30.36,NNE,20,6.0,6.0,70,0.00,CLR,CLR,0.00,WeatherDisplay:10.37,2013-01-26 14:46:00,
2013-01-26 09:16:00,17.1,6.6,30.38,NE,40,7.0,7.0,63,0.00,CLR,CLR,0.00,WeatherDisplay:10.37,2013-01-26 15:16:00,
2013-01-26 09:46:00,17.1,6.6,30.38,NE,40,7.0,7.0,63,0.00,CLR,CLR,0.00,WeatherDisplay:10.37,2013-01-26 15:46:00,
2013-01-26 10:16:00,19.9,7.9,30.40,East,80,7.0,7.0,59,0.00,CLR,CLR,0.00,WeatherDisplay:10.37,2013-01-26 16:16:00,
2013-01-26 10:46:00,19.9,7.9,30.40,East,80,7.0,7.0,59,0.00,CLR,CLR,0.00,WeatherDisplay:10.37,2013-01-26 16:46:00,
2013-01-26 11:16:00,21.9,7.8,30.41,East,80,0.0,7.0,54,0.00,CLR,CLR,0.00,WeatherDisplay:10.37,2013-01-26 17:16:00,
2013-01-26 11:46:00,21.9,7.8,30.41,East,80,0.0,0.0,54,0.00,CLR,CLR,0.00,WeatherDisplay:10.37,2013-01-26 17:46:00,
2013-01-26 12:16:00,25.0,7.6,30.40,East,80,0.0,0.0,47,0.00,CLR,CLR,0.00,WeatherDisplay:10.37,2013-01-26 18:16:00,
2013-01-26 12:46:00,25.0,7.6,30.40,East,80,0.0,0.0,47,0.00,CLR,CLR,0.00,WeatherDisplay:10.37,2013-01-26 18:46:00,
2013-01-26 13:16:00,27.0,7.9,30.36,ESE,110,5.0,5.0,44,0.00,CLR,CLR,0.00,WeatherDisplay:10.37,2013-01-26 19:16:00,
2013-01-26 13:46:00,27.0,7.9,30.36,ESE,110,5.0,5.0,44,0.00,CLR,CLR,0.00,WeatherDisplay:10.37,2013-01-26 19:46:00,
2013-01-26 14:16:00,28.9,7.6,30.36,SW,220,3.0,5.0,40,0.00,CLR,CLR,0.00,WeatherDisplay:10.37,2013-01-26 20:16:00,
2013-01-26 14:46:00,28.9,7.6,30.36,SW,220,3.0,3.0,40,0.00,CLR,CLR,0.00,WeatherDisplay:10.37,2013-01-26 20:46:00,
2013-01-26 15:16:00,30.0,8.6,30.35,SW,220,0.0,3.0,40,0.00,CLR,CLR,0.00,WeatherDisplay:10.37,2013-01-26 21:16:00,
2013-01-26 15:46:00,30.0,8.6,30.35,SW,220,0.0,0.0,40,0.00,CLR,CLR,0.00,WeatherDisplay:10.37,2013-01-26 21:46:00,
2013-01-26 16:16:00,30.9,8.8,30.33,South,170,6.0,6.0,39,0.00,CLR,CLR,0.00,WeatherDisplay:10.37,2013-01-26 22:16:00,
2013-01-26 16:46:00,30.9,8.8,30.33,South,170,6.0,6.0,39,0.00,CLR,CLR,0.00,WeatherDisplay:10.37,2013-01-26 22:46:00,
2013-01-26 17:16:00,28.0,9.9,30.35,SSW,210,3.0,6.0,46,0.00,CLR,CLR,0.00,WeatherDisplay:10.37,2013-01-26 23:16:00,
2013-01-26 17:46:00,28.0,9.9,30.35,SSW,210,3.0,3.0,46,0.00,CLR,CLR,0.00,WeatherDisplay:10.37,2013-01-26 23:46:00,
2013-01-26 18:16:00,28.0,9.9,30.33,ESE,120,7.0,7.0,46,0.00,CLR,CLR,0.00,WeatherDisplay:10.37,2013-01-27 00:16:00,
2013-01-26 18:46:00,28.0,9.9,30.33,ESE,120,7.0,7.0,46,0.00,CLR,CLR,0.00,WeatherDisplay:10.37,2013-01-27 00:46:00,
2013-01-26 19:16:00,27.0,9.9,30.34,ESE,110,3.0,7.0,48,0.00,SCT,SCT,0.00,WeatherDisplay:10.37,2013-01-27 01:16:00,
2013-01-26 19:46:00,27.0,9.9,30.34,ESE,110,3.0,3.0,48,0.00,SCT,SCT,0.00,WeatherDisplay:10.37,2013-01-27 01:46:00,
2013-01-26 20:16:00,28.0,10.8,30.34,ESE,120,5.0,5.0,48,0.00,OVC,OVC,0.00,WeatherDisplay:10.37,2013-01-27 02:16:00,
2013-01-26 20:46:00,28.0,10.8,30.34,ESE,120,5.0,5.0,48,0.00,OVC,OVC,0.00,WeatherDisplay:10.37,2013-01-27 02:46:00,
2013-01-26 21:16:00,28.0,10.8,30.34,ESE,120,5.0,5.0,48,0.00,OVC,OVC,0.00,WeatherDisplay:10.37,2013-01-27 03:16:00,
2013-01-26 21:46:00,28.0,11.8,30.34,SE,130,7.0,7.0,50,0.00,CLR,CLR,0.00,WeatherDisplay:10.37,2013-01-27 03:46:00,
2013-01-26 22:16:00,28.0,12.7,30.34,SE,140,9.0,9.0,52,0.00,CLR,CLR,0.00,WeatherDisplay:10.37,2013-01-27 04:16:00,
2013-01-26 22:46:00,28.0,12.7,30.34,SE,140,9.0,9.0,52,0.00,CLR,CLR,0.00,WeatherDisplay:10.37,2013-01-27 04:46:00,
2013-01-26 23:16:00,28.0,14.8,30.35,SE,140,10.0,10.0,57,0.00,CLR,CLR,0.00,WeatherDisplay:10.37,2013-01-27 05:16:00,
2013-01-26 23:46:00,28.0,14.8,30.35,SE,140,10.0,10.0,57,0.00,CLR,CLR,0.00,WeatherDisplay:10.37,2013-01-27 05:46:00,